sensor_id;sensor_type;location;lat;lon;timestamp;pressure;altitude;pressure_sealevel;temperature
13570;BMP180;6856;51.460;7.158;2023-03-09T00:02:33;97749.00;;;6.10
13570;BMP180;6856;51.460;7.158;2023-03-09T00:05:11;97758.00;;;6.10
13570;BMP180;6856;51.460;7.158;2023-03-09T00:07:47;97757.00;;;6.00
13570;BMP180;6856;51.460;7.158;2023-03-09T00:10:21;97775.00;;;6.10
13570;BMP180;6856;51.460;7.158;2023-03-09T00:12:55;97770.00;;;6.10
13570;BMP180;6856;51.460;7.158;2023-03-09T00:15:29;97755.00;;;6.10
13570;BMP180;6856;51.460;7.158;2023-03-09T00:18:04;97768.00;;;6.10
13570;BMP180;6856;51.460;7.158;2023-03-09T00:20:37;97770.00;;;6.10
13570;BMP180;6856;51.460;7.158;2023-03-09T00:23:13;97772.00;;;6.10
13570;BMP180;6856;51.460;7.158;2023-03-09T00:25:50;97786.00;;;6.10
13570;BMP180;6856;51.460;7.158;2023-03-09T00:28:25;97793.00;;;6.10
13570;BMP180;6856;51.460;7.158;2023-03-09T00:31:05;97797.00;;;6.10
13570;BMP180;6856;51.460;7.158;2023-03-09T00:33:39;97803.00;;;6.00
13570;BMP180;6856;51.460;7.158;2023-03-09T00:36:13;97795.00;;;6.10
13570;BMP180;6856;51.460;7.158;2023-03-09T00:38:52;97795.00;;;6.10
13570;BMP180;6856;51.460;7.158;2023-03-09T00:41:27;97794.00;;;6.10
13570;BMP180;6856;51.460;7.158;2023-03-09T00:44:04;97801.00;;;6.10
13570;BMP180;6856;51.460;7.158;2023-03-09T00:46:39;97803.00;;;6.10
13570;BMP180;6856;51.460;7.158;2023-03-09T00:49:14;97798.00;;;6.10
13570;BMP180;6856;51.460;7.158;2023-03-09T00:51:48;97798.00;;;6.10
13570;BMP180;6856;51.460;7.158;2023-03-09T00:54:24;97796.00;;;6.10
13570;BMP180;6856;51.460;7.158;2023-03-09T00:56:57;97810.00;;;6.10
13570;BMP180;6856;51.460;7.158;2023-03-09T00:59:34;97812.00;;;6.10
13570;BMP180;6856;51.460;7.158;2023-03-09T01:02:08;97813.00;;;6.10
13570;BMP180;6856;51.460;7.158;2023-03-09T01:04:42;97810.00;;;6.20
13570;BMP180;6856;51.460;7.158;2023-03-09T01:07:16;97808.00;;;6.20
13570;BMP180;6856;51.460;7.158;2023-03-09T01:09:52;97806.00;;;6.10
13570;BMP180;6856;51.460;7.158;2023-03-09T01:12:26;97804.00;;;6.20
13570;BMP180;6856;51.460;7.158;2023-03-09T01:15:00;97799.00;;;6.20
13570;BMP180;6856;51.460;7.158;2023-03-09T01:17:34;97796.00;;;6.10
13570;BMP180;6856;51.460;7.158;2023-03-09T01:20:10;97790.00;;;6.10
13570;BMP180;6856;51.460;7.158;2023-03-09T01:22:44;97810.00;;;6.10
13570;BMP180;6856;51.460;7.158;2023-03-09T01:25:19;97799.00;;;6.10
13570;BMP180;6856;51.460;7.158;2023-03-09T01:27:52;97805.00;;;6.10
13570;BMP180;6856;51.460;7.158;2023-03-09T01:30:26;97809.00;;;6.10
13570;BMP180;6856;51.460;7.158;2023-03-09T01:32:59;97786.00;;;6.10
13570;BMP180;6856;51.460;7.158;2023-03-09T01:35:33;97807.00;;;6.10
13570;BMP180;6856;51.460;7.158;2023-03-09T01:38:07;97814.00;;;6.10
13570;BMP180;6856;51.460;7.158;2023-03-09T01:40:45;97820.00;;;6.10
13570;BMP180;6856;51.460;7.158;2023-03-09T01:43:33;97834.00;;;6.10
13570;BMP180;6856;51.460;7.158;2023-03-09T01:46:34;97832.00;;;6.10
13570;BMP180;6856;51.460;7.158;2023-03-09T01:49:19;97845.00;;;6.10
13570;BMP180;6856;51.460;7.158;2023-03-09T01:52:02;97854.00;;;6.10
13570;BMP180;6856;51.460;7.158;2023-03-09T01:54:46;97848.00;;;6.10
13570;BMP180;6856;51.460;7.158;2023-03-09T01:57:28;97845.00;;;6.10
13570;BMP180;6856;51.460;7.158;2023-03-09T02:00:09;97857.00;;;6.10
13570;BMP180;6856;51.460;7.158;2023-03-09T02:02:48;97848.00;;;6.10
13570;BMP180;6856;51.460;7.158;2023-03-09T02:05:30;97861.00;;;6.10
13570;BMP180;6856;51.460;7.158;2023-03-09T02:08:07;97872.00;;;6.10
13570;BMP180;6856;51.460;7.158;2023-03-09T02:10:48;97871.00;;;6.10
13570;BMP180;6856;51.460;7.158;2023-03-09T02:13:30;97878.00;;;6.10
13570;BMP180;6856;51.460;7.158;2023-03-09T02:16:05;97878.00;;;6.10
13570;BMP180;6856;51.460;7.158;2023-03-09T02:18:40;97881.00;;;6.10
13570;BMP180;6856;51.460;7.158;2023-03-09T02:21:25;97892.00;;;6.00
13570;BMP180;6856;51.460;7.158;2023-03-09T02:24:12;97904.00;;;6.00
13570;BMP180;6856;51.460;7.158;2023-03-09T02:26:56;97905.00;;;6.00
13570;BMP180;6856;51.460;7.158;2023-03-09T02:29:32;97909.00;;;6.00
13570;BMP180;6856;51.460;7.158;2023-03-09T02:32:07;97921.00;;;6.00
13570;BMP180;6856;51.460;7.158;2023-03-09T02:34:41;97924.00;;;6.00
13570;BMP180;6856;51.460;7.158;2023-03-09T02:37:27;97931.00;;;6.00
13570;BMP180;6856;51.460;7.158;2023-03-09T02:40:11;97927.00;;;6.00
13570;BMP180;6856;51.460;7.158;2023-03-09T02:42:47;97929.00;;;6.00
13570;BMP180;6856;51.460;7.158;2023-03-09T02:45:25;97916.00;;;6.00
13570;BMP180;6856;51.460;7.158;2023-03-09T02:47:59;97893.00;;;6.00
13570;BMP180;6856;51.460;7.158;2023-03-09T02:50:34;97926.00;;;6.00
13570;BMP180;6856;51.460;7.158;2023-03-09T02:53:08;97930.00;;;6.00
13570;BMP180;6856;51.460;7.158;2023-03-09T02:55:41;97941.00;;;6.00
13570;BMP180;6856;51.460;7.158;2023-03-09T02:58:15;97944.00;;;6.00
13570;BMP180;6856;51.460;7.158;2023-03-09T03:00:51;97955.00;;;6.00
13570;BMP180;6856;51.460;7.158;2023-03-09T03:03:24;97950.00;;;6.10
13570;BMP180;6856;51.460;7.158;2023-03-09T03:05:59;97954.00;;;6.10
13570;BMP180;6856;51.460;7.158;2023-03-09T03:08:33;97938.00;;;6.10
13570;BMP180;6856;51.460;7.158;2023-03-09T03:11:08;97961.00;;;6.10
13570;BMP180;6856;51.460;7.158;2023-03-09T03:13:42;97959.00;;;6.10
13570;BMP180;6856;51.460;7.158;2023-03-09T03:16:17;97941.00;;;6.10
13570;BMP180;6856;51.460;7.158;2023-03-09T03:18:51;97957.00;;;6.20
13570;BMP180;6856;51.460;7.158;2023-03-09T03:21:25;97961.00;;;6.20
13570;BMP180;6856;51.460;7.158;2023-03-09T03:23:58;97961.00;;;6.20
13570;BMP180;6856;51.460;7.158;2023-03-09T03:26:32;97960.00;;;6.20
13570;BMP180;6856;51.460;7.158;2023-03-09T03:29:06;97969.00;;;6.20
13570;BMP180;6856;51.460;7.158;2023-03-09T03:31:41;97980.00;;;6.30
13570;BMP180;6856;51.460;7.158;2023-03-09T03:34:14;97984.00;;;6.30
13570;BMP180;6856;51.460;7.158;2023-03-09T03:36:49;97989.00;;;6.30
13570;BMP180;6856;51.460;7.158;2023-03-09T03:39:23;97982.00;;;6.30
13570;BMP180;6856;51.460;7.158;2023-03-09T03:41:56;98000.00;;;6.30
13570;BMP180;6856;51.460;7.158;2023-03-09T03:44:30;98004.00;;;6.30
13570;BMP180;6856;51.460;7.158;2023-03-09T03:47:06;98013.00;;;6.30
13570;BMP180;6856;51.460;7.158;2023-03-09T03:49:39;98025.00;;;6.30
13570;BMP180;6856;51.460;7.158;2023-03-09T03:52:13;98026.00;;;6.30
13570;BMP180;6856;51.460;7.158;2023-03-09T03:54:48;98025.00;;;6.30
13570;BMP180;6856;51.460;7.158;2023-03-09T03:57:22;98033.00;;;6.30
13570;BMP180;6856;51.460;7.158;2023-03-09T03:59:56;98036.00;;;6.30
13570;BMP180;6856;51.460;7.158;2023-03-09T04:02:31;98040.00;;;6.40
13570;BMP180;6856;51.460;7.158;2023-03-09T04:05:06;98033.00;;;6.40
13570;BMP180;6856;51.460;7.158;2023-03-09T04:07:40;98039.00;;;6.40
13570;BMP180;6856;51.460;7.158;2023-03-09T04:10:14;98047.00;;;6.40
13570;BMP180;6856;51.460;7.158;2023-03-09T04:12:48;98044.00;;;6.40
13570;BMP180;6856;51.460;7.158;2023-03-09T04:15:22;98045.00;;;6.40
13570;BMP180;6856;51.460;7.158;2023-03-09T04:17:57;98060.00;;;6.40
13570;BMP180;6856;51.460;7.158;2023-03-09T04:20:31;98056.00;;;6.40
13570;BMP180;6856;51.460;7.158;2023-03-09T04:23:04;98067.00;;;6.40
13570;BMP180;6856;51.460;7.158;2023-03-09T04:25:39;98052.00;;;6.40
13570;BMP180;6856;51.460;7.158;2023-03-09T04:28:14;98079.00;;;6.40
13570;BMP180;6856;51.460;7.158;2023-03-09T04:30:48;98080.00;;;6.40
13570;BMP180;6856;51.460;7.158;2023-03-09T04:33:23;98083.00;;;6.40
13570;BMP180;6856;51.460;7.158;2023-03-09T04:35:57;98098.00;;;6.40
13570;BMP180;6856;51.460;7.158;2023-03-09T04:38:31;98099.00;;;6.40
13570;BMP180;6856;51.460;7.158;2023-03-09T04:41:05;98106.00;;;6.40
13570;BMP180;6856;51.460;7.158;2023-03-09T04:43:38;98096.00;;;6.40
13570;BMP180;6856;51.460;7.158;2023-03-09T04:46:12;98084.00;;;6.40
13570;BMP180;6856;51.460;7.158;2023-03-09T04:48:48;98084.00;;;6.40
13570;BMP180;6856;51.460;7.158;2023-03-09T04:51:22;98085.00;;;6.40
13570;BMP180;6856;51.460;7.158;2023-03-09T04:53:56;98076.00;;;6.40
13570;BMP180;6856;51.460;7.158;2023-03-09T04:56:30;98099.00;;;6.40
13570;BMP180;6856;51.460;7.158;2023-03-09T04:59:04;98100.00;;;6.40
13570;BMP180;6856;51.460;7.158;2023-03-09T05:01:37;98109.00;;;6.40
13570;BMP180;6856;51.460;7.158;2023-03-09T05:04:12;98115.00;;;6.40
13570;BMP180;6856;51.460;7.158;2023-03-09T05:06:46;98113.00;;;6.40
13570;BMP180;6856;51.460;7.158;2023-03-09T05:09:20;98133.00;;;6.40
13570;BMP180;6856;51.460;7.158;2023-03-09T05:11:54;98134.00;;;6.30
13570;BMP180;6856;51.460;7.158;2023-03-09T05:14:29;98129.00;;;6.30
13570;BMP180;6856;51.460;7.158;2023-03-09T05:17:04;98137.00;;;6.30
13570;BMP180;6856;51.460;7.158;2023-03-09T05:19:40;98137.00;;;6.30
13570;BMP180;6856;51.460;7.158;2023-03-09T05:22:13;98146.00;;;6.30
13570;BMP180;6856;51.460;7.158;2023-03-09T05:24:47;98137.00;;;6.30
13570;BMP180;6856;51.460;7.158;2023-03-09T05:27:21;98150.00;;;6.30
13570;BMP180;6856;51.460;7.158;2023-03-09T05:29:55;98143.00;;;6.30
13570;BMP180;6856;51.460;7.158;2023-03-09T05:32:28;98147.00;;;6.30
13570;BMP180;6856;51.460;7.158;2023-03-09T05:35:07;98169.00;;;6.30
13570;BMP180;6856;51.460;7.158;2023-03-09T05:37:41;98176.00;;;6.20
13570;BMP180;6856;51.460;7.158;2023-03-09T05:40:16;98170.00;;;6.30
13570;BMP180;6856;51.460;7.158;2023-03-09T05:42:53;98180.00;;;6.30
13570;BMP180;6856;51.460;7.158;2023-03-09T05:45:27;98168.00;;;6.20
13570;BMP180;6856;51.460;7.158;2023-03-09T05:48:01;98178.00;;;6.30
13570;BMP180;6856;51.460;7.158;2023-03-09T05:50:38;98187.00;;;6.30
13570;BMP180;6856;51.460;7.158;2023-03-09T05:53:12;98200.00;;;6.30
13570;BMP180;6856;51.460;7.158;2023-03-09T05:55:51;98203.00;;;6.30
13570;BMP180;6856;51.460;7.158;2023-03-09T05:58:25;98207.00;;;6.30
13570;BMP180;6856;51.460;7.158;2023-03-09T06:01:00;98217.00;;;6.30
13570;BMP180;6856;51.460;7.158;2023-03-09T06:03:34;98210.00;;;6.30
13570;BMP180;6856;51.460;7.158;2023-03-09T06:06:09;98205.00;;;6.30
13570;BMP180;6856;51.460;7.158;2023-03-09T06:08:44;98222.00;;;6.30
13570;BMP180;6856;51.460;7.158;2023-03-09T06:11:18;98222.00;;;6.30
13570;BMP180;6856;51.460;7.158;2023-03-09T06:13:53;98225.00;;;6.30
13570;BMP180;6856;51.460;7.158;2023-03-09T06:16:27;98223.00;;;6.30
13570;BMP180;6856;51.460;7.158;2023-03-09T06:19:01;98234.00;;;6.30
13570;BMP180;6856;51.460;7.158;2023-03-09T06:21:36;98244.00;;;6.30
13570;BMP180;6856;51.460;7.158;2023-03-09T06:24:09;98236.00;;;6.30
13570;BMP180;6856;51.460;7.158;2023-03-09T06:26:42;98231.00;;;6.30
13570;BMP180;6856;51.460;7.158;2023-03-09T06:29:16;98235.00;;;6.30
13570;BMP180;6856;51.460;7.158;2023-03-09T06:31:50;98250.00;;;6.30
13570;BMP180;6856;51.460;7.158;2023-03-09T06:34:24;98245.00;;;6.30
13570;BMP180;6856;51.460;7.158;2023-03-09T06:36:58;98261.00;;;6.30
13570;BMP180;6856;51.460;7.158;2023-03-09T06:39:32;98259.00;;;6.30
13570;BMP180;6856;51.460;7.158;2023-03-09T06:42:06;98244.00;;;6.30
13570;BMP180;6856;51.460;7.158;2023-03-09T06:44:40;98226.00;;;6.40
13570;BMP180;6856;51.460;7.158;2023-03-09T06:47:14;98238.00;;;6.40
13570;BMP180;6856;51.460;7.158;2023-03-09T06:49:48;98238.00;;;6.40
13570;BMP180;6856;51.460;7.158;2023-03-09T06:52:23;98217.00;;;6.40
13570;BMP180;6856;51.460;7.158;2023-03-09T06:54:57;98233.00;;;6.40
13570;BMP180;6856;51.460;7.158;2023-03-09T06:57:46;98225.00;;;6.40
13570;BMP180;6856;51.460;7.158;2023-03-09T07:00:21;98224.00;;;6.40
13570;BMP180;6856;51.460;7.158;2023-03-09T07:02:58;98225.00;;;6.40
13570;BMP180;6856;51.460;7.158;2023-03-09T07:05:32;98238.00;;;6.40
13570;BMP180;6856;51.460;7.158;2023-03-09T07:08:08;98245.00;;;6.40
13570;BMP180;6856;51.460;7.158;2023-03-09T07:10:43;98231.00;;;6.40
13570;BMP180;6856;51.460;7.158;2023-03-09T07:13:16;98263.00;;;6.50
13570;BMP180;6856;51.460;7.158;2023-03-09T07:15:51;98261.00;;;6.50
13570;BMP180;6856;51.460;7.158;2023-03-09T07:18:27;98264.00;;;6.50
13570;BMP180;6856;51.460;7.158;2023-03-09T07:21:02;98278.00;;;6.50
13570;BMP180;6856;51.460;7.158;2023-03-09T07:23:37;98288.00;;;6.50
13570;BMP180;6856;51.460;7.158;2023-03-09T07:26:11;98280.00;;;6.60
13570;BMP180;6856;51.460;7.158;2023-03-09T07:28:44;98299.00;;;6.60
13570;BMP180;6856;51.460;7.158;2023-03-09T07:31:18;98306.00;;;6.60
13570;BMP180;6856;51.460;7.158;2023-03-09T07:33:52;98311.00;;;6.60
13570;BMP180;6856;51.460;7.158;2023-03-09T07:36:26;98326.00;;;6.70
13570;BMP180;6856;51.460;7.158;2023-03-09T07:39:01;98325.00;;;6.70
13570;BMP180;6856;51.460;7.158;2023-03-09T07:41:34;98332.00;;;6.70
13570;BMP180;6856;51.460;7.158;2023-03-09T07:44:08;98314.00;;;6.80
13570;BMP180;6856;51.460;7.158;2023-03-09T07:46:42;98347.00;;;6.80
13570;BMP180;6856;51.460;7.158;2023-03-09T07:49:15;98323.00;;;6.80
13570;BMP180;6856;51.460;7.158;2023-03-09T07:51:51;98360.00;;;6.80
13570;BMP180;6856;51.460;7.158;2023-03-09T07:54:26;98357.00;;;6.80
13570;BMP180;6856;51.460;7.158;2023-03-09T07:57:02;98350.00;;;6.80
13570;BMP180;6856;51.460;7.158;2023-03-09T07:59:37;98360.00;;;6.80
13570;BMP180;6856;51.460;7.158;2023-03-09T08:02:12;98375.00;;;6.90
13570;BMP180;6856;51.460;7.158;2023-03-09T08:04:47;98375.00;;;6.90
13570;BMP180;6856;51.460;7.158;2023-03-09T08:07:20;98381.00;;;6.90
13570;BMP180;6856;51.460;7.158;2023-03-09T08:09:56;98387.00;;;6.90
13570;BMP180;6856;51.460;7.158;2023-03-09T08:12:29;98391.00;;;7.00
13570;BMP180;6856;51.460;7.158;2023-03-09T08:15:05;98378.00;;;7.00
13570;BMP180;6856;51.460;7.158;2023-03-09T08:17:39;98396.00;;;7.00
13570;BMP180;6856;51.460;7.158;2023-03-09T08:20:13;98408.00;;;7.00
13570;BMP180;6856;51.460;7.158;2023-03-09T08:22:47;98399.00;;;7.00
13570;BMP180;6856;51.460;7.158;2023-03-09T08:25:23;98388.00;;;7.00
13570;BMP180;6856;51.460;7.158;2023-03-09T08:27:57;98413.00;;;7.00
13570;BMP180;6856;51.460;7.158;2023-03-09T08:30:32;98408.00;;;7.00
13570;BMP180;6856;51.460;7.158;2023-03-09T08:33:09;98410.00;;;7.00
13570;BMP180;6856;51.460;7.158;2023-03-09T08:35:43;98426.00;;;7.00
13570;BMP180;6856;51.460;7.158;2023-03-09T08:38:17;98438.00;;;7.00
13570;BMP180;6856;51.460;7.158;2023-03-09T08:40:52;98439.00;;;7.10
13570;BMP180;6856;51.460;7.158;2023-03-09T08:43:26;98434.00;;;7.10
13570;BMP180;6856;51.460;7.158;2023-03-09T08:46:01;98435.00;;;7.10
13570;BMP180;6856;51.460;7.158;2023-03-09T08:48:35;98439.00;;;7.10
13570;BMP180;6856;51.460;7.158;2023-03-09T08:51:10;98450.00;;;7.10
13570;BMP180;6856;51.460;7.158;2023-03-09T08:53:44;98451.00;;;7.20
13570;BMP180;6856;51.460;7.158;2023-03-09T08:56:20;98465.00;;;7.20
13570;BMP180;6856;51.460;7.158;2023-03-09T08:58:53;98463.00;;;7.20
13570;BMP180;6856;51.460;7.158;2023-03-09T09:01:27;98460.00;;;7.20
13570;BMP180;6856;51.460;7.158;2023-03-09T09:04:01;98474.00;;;7.20
13570;BMP180;6856;51.460;7.158;2023-03-09T09:06:35;98482.00;;;7.20
13570;BMP180;6856;51.460;7.158;2023-03-09T09:09:09;98473.00;;;7.20
13570;BMP180;6856;51.460;7.158;2023-03-09T09:11:44;98485.00;;;7.20
13570;BMP180;6856;51.460;7.158;2023-03-09T09:14:18;98482.00;;;7.30
13570;BMP180;6856;51.460;7.158;2023-03-09T09:16:52;98494.00;;;7.30
13570;BMP180;6856;51.460;7.158;2023-03-09T09:19:26;98500.00;;;7.30
13570;BMP180;6856;51.460;7.158;2023-03-09T09:22:02;98503.00;;;7.30
13570;BMP180;6856;51.460;7.158;2023-03-09T09:24:37;98484.00;;;7.20
13570;BMP180;6856;51.460;7.158;2023-03-09T09:27:13;98495.00;;;7.30
13570;BMP180;6856;51.460;7.158;2023-03-09T09:29:46;98505.00;;;7.30
13570;BMP180;6856;51.460;7.158;2023-03-09T09:32:20;98513.00;;;7.30
13570;BMP180;6856;51.460;7.158;2023-03-09T09:34:54;98512.00;;;7.30
13570;BMP180;6856;51.460;7.158;2023-03-09T09:37:28;98516.00;;;7.30
13570;BMP180;6856;51.460;7.158;2023-03-09T09:40:04;98502.00;;;7.40
13570;BMP180;6856;51.460;7.158;2023-03-09T09:42:42;98521.00;;;7.40
13570;BMP180;6856;51.460;7.158;2023-03-09T09:45:35;98515.00;;;7.40
13570;BMP180;6856;51.460;7.158;2023-03-09T09:48:14;98530.00;;;7.40
13570;BMP180;6856;51.460;7.158;2023-03-09T09:51:09;98525.00;;;7.40
13570;BMP180;6856;51.460;7.158;2023-03-09T09:53:59;98522.00;;;7.50
13570;BMP180;6856;51.460;7.158;2023-03-09T09:56:47;98524.00;;;7.50
13570;BMP180;6856;51.460;7.158;2023-03-09T09:59:33;98522.00;;;7.50
13570;BMP180;6856;51.460;7.158;2023-03-09T10:02:35;98521.00;;;7.50
13570;BMP180;6856;51.460;7.158;2023-03-09T10:05:20;98538.00;;;7.50
13570;BMP180;6856;51.460;7.158;2023-03-09T10:08:00;98542.00;;;7.60
13570;BMP180;6856;51.460;7.158;2023-03-09T10:10:38;98544.00;;;7.60
13570;BMP180;6856;51.460;7.158;2023-03-09T10:13:19;98547.00;;;7.50
13570;BMP180;6856;51.460;7.158;2023-03-09T10:15:58;98556.00;;;7.60
13570;BMP180;6856;51.460;7.158;2023-03-09T10:18:44;98550.00;;;7.60
13570;BMP180;6856;51.460;7.158;2023-03-09T10:21:28;98554.00;;;7.60
13570;BMP180;6856;51.460;7.158;2023-03-09T10:24:14;98545.00;;;7.60
13570;BMP180;6856;51.460;7.158;2023-03-09T10:26:57;98578.00;;;7.60
13570;BMP180;6856;51.460;7.158;2023-03-09T10:29:44;98569.00;;;7.70
13570;BMP180;6856;51.460;7.158;2023-03-09T10:32:43;98562.00;;;7.70
13570;BMP180;6856;51.460;7.158;2023-03-09T10:35:23;98555.00;;;7.70
13570;BMP180;6856;51.460;7.158;2023-03-09T10:37:59;98565.00;;;7.70
13570;BMP180;6856;51.460;7.158;2023-03-09T10:40:42;98565.00;;;7.70
13570;BMP180;6856;51.460;7.158;2023-03-09T10:43:24;98568.00;;;7.70
13570;BMP180;6856;51.460;7.158;2023-03-09T10:46:12;98569.00;;;7.70
13570;BMP180;6856;51.460;7.158;2023-03-09T10:49:09;98575.00;;;7.80
13570;BMP180;6856;51.460;7.158;2023-03-09T10:51:53;98587.00;;;7.80
13570;BMP180;6856;51.460;7.158;2023-03-09T10:54:34;98584.00;;;7.80
13570;BMP180;6856;51.460;7.158;2023-03-09T10:57:26;98586.00;;;7.80
13570;BMP180;6856;51.460;7.158;2023-03-09T11:00:10;98591.00;;;7.80
13570;BMP180;6856;51.460;7.158;2023-03-09T11:02:53;98612.00;;;7.90
13570;BMP180;6856;51.460;7.158;2023-03-09T11:05:30;98613.00;;;7.90
13570;BMP180;6856;51.460;7.158;2023-03-09T11:08:04;98619.00;;;7.90
13570;BMP180;6856;51.460;7.158;2023-03-09T11:10:39;98615.00;;;7.90
13570;BMP180;6856;51.460;7.158;2023-03-09T11:13:19;98614.00;;;7.80
13570;BMP180;6856;51.460;7.158;2023-03-09T11:16:10;98614.00;;;8.00
13570;BMP180;6856;51.460;7.158;2023-03-09T11:18:45;98601.00;;;8.00
13570;BMP180;6856;51.460;7.158;2023-03-09T11:21:23;98606.00;;;8.00
13570;BMP180;6856;51.460;7.158;2023-03-09T11:24:02;98610.00;;;8.00
13570;BMP180;6856;51.460;7.158;2023-03-09T11:26:55;98572.00;;;8.00
13570;BMP180;6856;51.460;7.158;2023-03-09T11:29:42;98622.00;;;8.10
13570;BMP180;6856;51.460;7.158;2023-03-09T11:32:18;98623.00;;;8.10
13570;BMP180;6856;51.460;7.158;2023-03-09T11:34:52;98624.00;;;8.10
13570;BMP180;6856;51.460;7.158;2023-03-09T11:37:37;98613.00;;;8.10
13570;BMP180;6856;51.460;7.158;2023-03-09T11:40:16;98597.00;;;8.10
13570;BMP180;6856;51.460;7.158;2023-03-09T11:42:56;98604.00;;;8.20
13570;BMP180;6856;51.460;7.158;2023-03-09T11:45:34;98591.00;;;8.10
13570;BMP180;6856;51.460;7.158;2023-03-09T11:48:22;98591.00;;;8.20
13570;BMP180;6856;51.460;7.158;2023-03-09T11:51:03;98594.00;;;8.30
13570;BMP180;6856;51.460;7.158;2023-03-09T11:53:44;98610.00;;;8.30
13570;BMP180;6856;51.460;7.158;2023-03-09T11:56:27;98613.00;;;8.30
13570;BMP180;6856;51.460;7.158;2023-03-09T11:59:12;98614.00;;;8.30
13570;BMP180;6856;51.460;7.158;2023-03-09T12:01:56;98608.00;;;8.30
13570;BMP180;6856;51.460;7.158;2023-03-09T12:04:31;98606.00;;;8.30
13570;BMP180;6856;51.460;7.158;2023-03-09T12:07:14;98620.00;;;8.30
13570;BMP180;6856;51.460;7.158;2023-03-09T12:09:58;98625.00;;;8.40
13570;BMP180;6856;51.460;7.158;2023-03-09T12:12:42;98616.00;;;8.30
13570;BMP180;6856;51.460;7.158;2023-03-09T12:15:24;98614.00;;;8.40
13570;BMP180;6856;51.460;7.158;2023-03-09T12:18:05;98611.00;;;8.40
13570;BMP180;6856;51.460;7.158;2023-03-09T12:20:49;98609.00;;;8.40
13570;BMP180;6856;51.460;7.158;2023-03-09T12:23:49;98606.00;;;8.40
13570;BMP180;6856;51.460;7.158;2023-03-09T12:26:32;98609.00;;;8.40
13570;BMP180;6856;51.460;7.158;2023-03-09T12:29:20;98605.00;;;8.40
13570;BMP180;6856;51.460;7.158;2023-03-09T12:38:24;98580.00;;;8.50
13570;BMP180;6856;51.460;7.158;2023-03-09T12:40:59;98581.00;;;8.50
13570;BMP180;6856;51.460;7.158;2023-03-09T12:43:49;98575.00;;;8.50
13570;BMP180;6856;51.460;7.158;2023-03-09T12:47:00;98573.00;;;8.60
13570;BMP180;6856;51.460;7.158;2023-03-09T12:49:40;98582.00;;;8.60
13570;BMP180;6856;51.460;7.158;2023-03-09T12:52:42;98557.00;;;8.60
13570;BMP180;6856;51.460;7.158;2023-03-09T12:55:25;98570.00;;;8.60
13570;BMP180;6856;51.460;7.158;2023-03-09T12:58:36;98566.00;;;8.70
13570;BMP180;6856;51.460;7.158;2023-03-09T13:01:30;98556.00;;;8.70
13570;BMP180;6856;51.460;7.158;2023-03-09T13:04:13;98556.00;;;8.70
13570;BMP180;6856;51.460;7.158;2023-03-09T13:06:55;98559.00;;;8.80
13570;BMP180;6856;51.460;7.158;2023-03-09T13:09:35;98557.00;;;8.80
13570;BMP180;6856;51.460;7.158;2023-03-09T13:12:17;98554.00;;;8.80
13570;BMP180;6856;51.460;7.158;2023-03-09T13:15:22;98552.00;;;8.90
13570;BMP180;6856;51.460;7.158;2023-03-09T13:18:23;98562.00;;;8.90
13570;BMP180;6856;51.460;7.158;2023-03-09T13:21:38;98565.00;;;8.90
13570;BMP180;6856;51.460;7.158;2023-03-09T13:24:16;98558.00;;;8.90
13570;BMP180;6856;51.460;7.158;2023-03-09T13:26:56;98563.00;;;8.90
13570;BMP180;6856;51.460;7.158;2023-03-09T13:29:31;98560.00;;;9.00
13570;BMP180;6856;51.460;7.158;2023-03-09T13:32:29;98553.00;;;9.00
13570;BMP180;6856;51.460;7.158;2023-03-09T13:35:16;98548.00;;;9.00
13570;BMP180;6856;51.460;7.158;2023-03-09T13:37:51;98553.00;;;8.90
13570;BMP180;6856;51.460;7.158;2023-03-09T13:40:31;98551.00;;;9.10
13570;BMP180;6856;51.460;7.158;2023-03-09T13:43:14;98531.00;;;9.10
13570;BMP180;6856;51.460;7.158;2023-03-09T13:46:04;98543.00;;;9.10
13570;BMP180;6856;51.460;7.158;2023-03-09T13:48:45;98462.00;;;9.20
13570;BMP180;6856;51.460;7.158;2023-03-09T13:51:44;98561.00;;;9.20
13570;BMP180;6856;51.460;7.158;2023-03-09T13:54:28;98552.00;;;9.20
13570;BMP180;6856;51.460;7.158;2023-03-09T13:57:12;98545.00;;;9.20
13570;BMP180;6856;51.460;7.158;2023-03-09T13:59:55;98524.00;;;9.20
13570;BMP180;6856;51.460;7.158;2023-03-09T14:02:32;98510.00;;;9.30
13570;BMP180;6856;51.460;7.158;2023-03-09T14:05:19;98510.00;;;9.30
13570;BMP180;6856;51.460;7.158;2023-03-09T14:08:20;98514.00;;;9.30
13570;BMP180;6856;51.460;7.158;2023-03-09T14:10:55;98508.00;;;9.30
13570;BMP180;6856;51.460;7.158;2023-03-09T14:13:29;98516.00;;;9.40
13570;BMP180;6856;51.460;7.158;2023-03-09T14:16:06;98517.00;;;9.40
13570;BMP180;6856;51.460;7.158;2023-03-09T14:18:46;98517.00;;;9.40
13570;BMP180;6856;51.460;7.158;2023-03-09T14:21:24;98516.00;;;9.40
13570;BMP180;6856;51.460;7.158;2023-03-09T14:24:21;98518.00;;;9.50
13570;BMP180;6856;51.460;7.158;2023-03-09T14:26:56;98493.00;;;9.40
13570;BMP180;6856;51.460;7.158;2023-03-09T14:29:44;98517.00;;;9.50
13570;BMP180;6856;51.460;7.158;2023-03-09T14:32:22;98509.00;;;9.50
13570;BMP180;6856;51.460;7.158;2023-03-09T14:35:22;98502.00;;;9.50
13570;BMP180;6856;51.460;7.158;2023-03-09T14:37:58;98504.00;;;9.40
13570;BMP180;6856;51.460;7.158;2023-03-09T14:40:34;98507.00;;;9.50
13570;BMP180;6856;51.460;7.158;2023-03-09T14:43:32;98508.00;;;9.50
13570;BMP180;6856;51.460;7.158;2023-03-09T14:46:13;98505.00;;;9.50
13570;BMP180;6856;51.460;7.158;2023-03-09T14:48:53;98510.00;;;9.50
13570;BMP180;6856;51.460;7.158;2023-03-09T14:51:30;98512.00;;;9.50
13570;BMP180;6856;51.460;7.158;2023-03-09T14:54:11;98509.00;;;9.60
13570;BMP180;6856;51.460;7.158;2023-03-09T14:56:47;98498.00;;;9.60
13570;BMP180;6856;51.460;7.158;2023-03-09T14:59:20;98490.00;;;9.60
13570;BMP180;6856;51.460;7.158;2023-03-09T15:01:58;98482.00;;;9.60
13570;BMP180;6856;51.460;7.158;2023-03-09T15:04:40;98493.00;;;9.60
13570;BMP180;6856;51.460;7.158;2023-03-09T15:07:17;98483.00;;;9.60
13570;BMP180;6856;51.460;7.158;2023-03-09T15:09:51;98472.00;;;9.70
13570;BMP180;6856;51.460;7.158;2023-03-09T15:12:26;98463.00;;;9.70
13570;BMP180;6856;51.460;7.158;2023-03-09T15:14:59;98455.00;;;9.70
13570;BMP180;6856;51.460;7.158;2023-03-09T15:17:34;98453.00;;;9.70
13570;BMP180;6856;51.460;7.158;2023-03-09T15:20:13;98438.00;;;9.70
13570;BMP180;6856;51.460;7.158;2023-03-09T15:22:48;98439.00;;;9.70
13570;BMP180;6856;51.460;7.158;2023-03-09T15:25:21;98439.00;;;9.70
13570;BMP180;6856;51.460;7.158;2023-03-09T15:27:57;98423.00;;;9.80
13570;BMP180;6856;51.460;7.158;2023-03-09T15:30:31;98424.00;;;9.80
13570;BMP180;6856;51.460;7.158;2023-03-09T15:33:05;98412.00;;;9.90
13570;BMP180;6856;51.460;7.158;2023-03-09T15:35:41;98407.00;;;9.90
13570;BMP180;6856;51.460;7.158;2023-03-09T15:38:15;98399.00;;;10.00
13570;BMP180;6856;51.460;7.158;2023-03-09T15:40:50;98394.00;;;10.00
13570;BMP180;6856;51.460;7.158;2023-03-09T15:43:25;98395.00;;;10.00
13570;BMP180;6856;51.460;7.158;2023-03-09T15:46:02;98380.00;;;10.10